createdAt,value
2018-01-31T01:53:14.152Z,47.50
2018-01-31T01:55:42.528Z,48.10
2018-01-31T01:58:10.165Z,48.10
2018-01-31T02:00:37.773Z,47.40
2018-01-31T02:03:05.371Z,48.00
2018-01-31T02:05:33.784Z,47.90
2018-01-31T02:08:01.431Z,47.90
2018-01-31T02:10:29.029Z,47.50
2018-01-31T02:12:56.673Z,47.70
2018-01-31T02:15:25.041Z,47.30
2018-01-31T02:17:53.441Z,47.30
2018-01-31T02:20:21.083Z,47.30
2018-01-31T02:22:48.681Z,47.10
2018-01-31T02:25:16.284Z,47.00
2018-01-31T02:27:44.693Z,47.50
2018-01-31T02:30:12.310Z,47.50
2018-01-31T02:32:39.919Z,47.20
2018-01-31T02:35:08.370Z,46.70
2018-01-31T02:37:36.015Z,46.70
2018-01-31T02:40:03.720Z,46.50
2018-01-31T02:42:31.357Z,45.80
2018-01-31T02:44:58.970Z,46.10
2018-01-31T02:47:26.577Z,45.70
2018-01-31T02:49:54.219Z,45.60
2018-01-31T02:52:21.829Z,45.20
2018-01-31T02:54:51.034Z,46.50
2018-01-31T02:57:18.677Z,45.80
2018-01-31T02:59:46.305Z,46.10
2018-01-31T03:02:14.673Z,45.70
2018-01-31T03:04:42.323Z,45.60
2018-01-31T03:07:09.937Z,45.40
2018-01-31T03:09:38.307Z,45.30
2018-01-31T03:12:05.945Z,45.30
2018-01-31T03:14:33.560Z,44.90
2018-01-31T03:17:01.161Z,44.60
2018-01-31T03:19:28.805Z,45.60
2018-01-31T03:21:56.406Z,44.60
2018-01-31T03:24:24.008Z,44.20
2018-01-31T03:26:51.655Z,44.30
2018-01-31T03:29:19.261Z,44.30
2018-01-31T03:31:46.942Z,44.60
2018-01-31T03:34:14.573Z,44.30
2018-01-31T03:36:42.945Z,43.50
2018-01-31T03:39:10.550Z,43.60
2018-01-31T03:41:38.192Z,42.90
2018-01-31T03:44:05.792Z,42.40
2018-01-31T03:46:33.397Z,42.50
2018-01-31T03:49:01.049Z,42.50
2018-01-31T03:51:28.645Z,42.50
2018-01-31T03:53:56.257Z,42.00
2018-01-31T03:56:23.919Z,42.40
2018-01-31T03:58:51.516Z,42.00
2018-01-31T04:01:19.881Z,41.30
2018-01-31T04:03:47.521Z,41.30
2018-01-31T04:06:15.125Z,41.20
2018-01-31T04:08:42.729Z,41.00
2018-01-31T04:11:11.141Z,40.80
2018-01-31T04:13:38.745Z,40.70
2018-01-31T04:16:06.353Z,40.30
2018-01-31T04:18:33.997Z,40.30
2018-01-31T04:21:01.597Z,40.20
2018-01-31T04:23:29.204Z,39.90
2018-01-31T04:25:56.841Z,39.70
2018-01-31T04:28:24.594Z,39.30
2018-01-31T04:30:52.193Z,39.60
2018-01-31T04:33:19.840Z,39.10
2018-01-31T04:35:47.443Z,39.20
2018-01-31T04:38:15.088Z,39.40
2018-01-31T04:40:42.744Z,38.80
2018-01-31T04:43:10.348Z,38.70
2018-01-31T04:45:37.949Z,38.30
2018-01-31T04:48:05.581Z,38.20
2018-01-31T04:50:33.184Z,38.40
2018-01-31T04:53:00.837Z,38.10
2018-01-31T04:55:28.471Z,37.90
2018-01-31T04:57:56.075Z,38.20
2018-01-31T05:00:23.677Z,37.80
2018-01-31T05:02:51.312Z,37.70
2018-01-31T05:05:18.912Z,37.80
2018-01-31T05:07:46.523Z,38.00
2018-01-31T05:10:14.937Z,37.80
2018-01-31T05:12:42.549Z,37.70
2018-01-31T05:15:10.154Z,38.50
2018-01-31T05:17:37.793Z,38.40
2018-01-31T05:20:05.398Z,38.80
2018-01-31T05:22:33.011Z,39.80
2018-01-31T05:25:00.645Z,39.00
2018-01-31T05:27:29.022Z,38.20
2018-01-31T05:29:56.641Z,38.20
2018-01-31T05:32:24.272Z,38.10
2018-01-31T05:34:51.868Z,37.50
2018-01-31T05:37:20.238Z,37.20
2018-01-31T05:39:47.988Z,37.10
2018-01-31T05:42:15.592Z,37.00
2018-01-31T05:44:43.196Z,36.80
2018-01-31T05:47:11.596Z,36.30
2018-01-31T05:49:39.192Z,36.30
2018-01-31T05:52:06.800Z,36.50
2018-01-31T05:54:34.432Z,35.60
2018-01-31T05:57:02.045Z,35.40
2018-01-31T05:59:29.650Z,35.60
2018-01-31T06:01:58.066Z,35.30
2018-01-31T06:04:25.694Z,35.30
2018-01-31T06:06:53.293Z,35.20
2018-01-31T06:09:22.668Z,35.90
2018-01-31T06:11:50.298Z,35.80
2018-01-31T06:14:17.913Z,36.00
2018-01-31T06:16:48.340Z,36.10
2018-01-31T06:19:15.942Z,35.80
2018-01-31T06:21:43.548Z,35.70
2018-01-31T06:24:11.238Z,35.80
2018-01-31T06:26:38.879Z,35.40
2018-01-31T06:29:07.245Z,35.50
2018-01-31T06:31:34.893Z,35.50
2018-01-31T06:34:02.496Z,35.50
2018-01-31T06:36:30.172Z,35.60
2018-01-31T06:38:57.890Z,35.70
2018-01-31T06:41:25.498Z,36.10
2018-01-31T06:43:53.093Z,36.10
2018-01-31T06:46:20.732Z,35.60
2018-01-31T06:48:48.362Z,35.70
2018-01-31T06:51:16.745Z,35.10
2018-01-31T06:53:44.380Z,35.00
2018-01-31T06:56:11.985Z,34.90
2018-01-31T06:58:39.588Z,35.20
2018-01-31T07:01:07.997Z,35.00
2018-01-31T07:03:35.605Z,35.00
2018-01-31T07:06:03.213Z,35.20
2018-01-31T07:08:31.616Z,35.90
2018-01-31T07:10:59.224Z,35.90
2018-01-31T07:13:26.836Z,36.40
2018-01-31T07:15:54.472Z,36.60
2018-01-31T07:18:22.078Z,36.40
2018-01-31T07:20:49.684Z,36.80
2018-01-31T07:23:18.092Z,37.60
2018-01-31T07:25:45.801Z,37.50
2018-01-31T07:28:13.405Z,37.70
2018-01-31T07:30:41.049Z,38.10
2018-01-31T07:33:08.649Z,38.10
2018-01-31T07:35:36.261Z,38.40
2018-01-31T07:38:03.907Z,38.70
2018-01-31T07:40:32.357Z,39.00
2018-01-31T07:42:59.961Z,39.00
2018-01-31T07:45:27.611Z,39.40
2018-01-31T07:47:55.220Z,39.10
2018-01-31T07:50:22.836Z,38.70
2018-01-31T07:52:50.500Z,38.70
2018-01-31T07:55:18.206Z,38.70
2018-01-31T07:57:45.824Z,38.40
2018-01-31T08:00:14.271Z,38.50
2018-01-31T08:02:41.877Z,38.50
2018-01-31T08:05:09.493Z,38.60
2018-01-31T08:07:37.328Z,38.30
2018-01-31T08:10:04.930Z,38.50
2018-01-31T08:12:32.530Z,38.70
2018-01-31T08:15:00.170Z,39.00
2018-01-31T08:17:28.543Z,38.80
2018-01-31T08:19:56.153Z,38.70
2018-01-31T08:22:23.796Z,38.90
2018-01-31T08:24:51.393Z,39.00
2018-01-31T08:27:19.010Z,38.80
2018-01-31T08:29:46.651Z,39.50
2018-01-31T08:32:14.261Z,39.30
2018-01-31T08:34:41.868Z,39.40
2018-01-31T08:37:10.282Z,39.00
2018-01-31T08:39:37.992Z,39.00
2018-01-31T08:42:05.873Z,38.60
2018-01-31T08:44:33.521Z,38.20
2018-01-31T08:47:01.140Z,38.30
2018-01-31T08:49:28.754Z,37.70
2018-01-31T08:51:56.389Z,37.70
2018-01-31T08:54:24.002Z,37.60
2018-01-31T08:56:51.606Z,38.40
2018-01-31T08:59:19.240Z,38.30
2018-01-31T09:01:47.614Z,38.20
2018-01-31T09:04:15.217Z,38.20
2018-01-31T09:06:42.864Z,38.50
2018-01-31T09:09:10.483Z,38.10
2018-01-31T09:11:38.082Z,38.50
2018-01-31T09:14:05.721Z,37.90
2018-01-31T09:16:33.321Z,38.10
2018-01-31T09:19:00.995Z,38.50
2018-01-31T09:21:28.647Z,39.60
2018-01-31T09:23:56.270Z,40.40
2018-01-31T09:26:23.869Z,41.50
2018-01-31T09:28:52.284Z,44.90
2018-01-31T09:31:19.892Z,45.00
2018-01-31T09:33:47.496Z,46.50
2018-01-31T09:36:15.904Z,51.10
2018-01-31T09:38:44.277Z,53.40
2018-01-31T09:41:11.876Z,53.30
2018-01-31T09:43:40.284Z,57.20
2018-01-31T09:46:07.888Z,57.20
2018-01-31T09:48:35.491Z,58.30
2018-01-31T09:51:03.904Z,58.90
2018-01-31T09:53:32.335Z,57.50
2018-01-31T09:55:59.914Z,57.50
2018-01-31T09:58:27.561Z,56.40
2018-01-31T10:00:55.160Z,56.10
2018-01-31T10:03:22.762Z,56.20
2018-01-31T10:05:50.416Z,55.20
2018-01-31T10:08:18.022Z,53.00
2018-01-31T10:10:46.401Z,50.50
2018-01-31T10:13:14.045Z,50.50
2018-01-31T10:15:41.652Z,51.00
2018-01-31T10:18:09.261Z,47.90
2018-01-31T10:20:36.970Z,46.40
2018-01-31T10:23:04.568Z,47.00
2018-01-31T10:25:32.965Z,44.70
2018-01-31T10:28:00.614Z,44.70
2018-01-31T10:30:28.214Z,43.80
2018-01-31T10:32:55.826Z,42.60
2018-01-31T10:35:23.464Z,44.00
2018-01-31T10:37:51.066Z,42.70
2018-01-31T10:40:18.702Z,42.40
2018-01-31T10:42:46.359Z,43.40
2018-01-31T10:45:13.969Z,43.70
2018-01-31T10:47:41.581Z,45.50
2018-01-31T10:50:09.232Z,47.30
2018-01-31T10:52:36.846Z,50.90
2018-01-31T10:57:32.154Z,53.80
2018-01-31T10:59:59.761Z,55.00
2018-01-31T11:02:27.714Z,58.50
2018-01-31T11:04:55.834Z,65.10
2018-01-31T11:07:23.441Z,65.00
2018-01-31T11:09:51.053Z,62.40
2018-01-31T11:12:18.693Z,70.80
2018-01-31T11:14:46.302Z,71.10
2018-01-31T11:17:13.903Z,73.80
2018-01-31T11:19:41.581Z,74.20
2018-01-31T11:22:09.187Z,69.90
2018-01-31T11:24:36.784Z,66.60
2018-01-31T11:27:04.429Z,66.50
2018-01-31T11:29:32.041Z,69.90
2018-01-31T11:31:59.644Z,65.70
2018-01-31T11:34:27.297Z,64.50
2018-01-31T11:36:54.896Z,68.60
2018-01-31T11:39:22.495Z,63.00
2018-01-31T11:41:50.134Z,60.20
2018-01-31T11:44:17.734Z,59.80
2018-01-31T11:46:45.344Z,59.60
2018-01-31T11:49:13.760Z,55.50
2018-01-31T11:51:41.371Z,55.50
2018-01-31T11:54:08.981Z,53.00
2018-01-31T11:56:36.648Z,54.80
2018-01-31T11:59:05.026Z,52.20
2018-01-31T12:01:33.401Z,51.80
2018-01-31T12:04:01.034Z,51.30
2018-01-31T12:06:28.646Z,52.40
2018-01-31T12:08:56.254Z,49.60
2018-01-31T12:11:24.668Z,50.80
2018-01-31T12:14:16.950Z,50.80
2018-01-31T12:16:56.317Z,50.00
2018-01-31T12:19:41.562Z,48.50
2018-01-31T12:22:21.169Z,48.10
2018-01-31T12:25:00.461Z,47.40
2018-01-31T12:27:40.051Z,47.00
2018-01-31T12:30:19.577Z,47.00
2018-01-31T12:32:59.182Z,47.00
2018-01-31T12:35:38.588Z,46.30
2018-01-31T12:38:18.176Z,46.00
2018-01-31T12:40:45.328Z,47.20
2018-01-31T12:43:12.457Z,45.70
2018-01-31T12:45:39.615Z,45.10
2018-01-31T12:51:16.208Z,46.50
2018-01-31T12:53:55.611Z,46.20
2018-01-31T12:56:44.101Z,46.20
2018-01-31T12:59:23.558Z,45.20
2018-01-31T13:01:54.881Z,45.20
2018-01-31T13:04:34.384Z,45.10
2018-01-31T13:07:21.877Z,45.20
2018-01-31T13:10:01.265Z,46.50
2018-01-31T13:12:40.713Z,46.60
2018-01-31T13:15:20.005Z,45.80
2018-01-31T13:20:58.386Z,45.70
2018-01-31T13:23:26.026Z,46.70
2018-01-31T13:26:05.260Z,46.50
2018-01-31T13:28:43.832Z,46.40
2018-01-31T13:31:25.224Z,46.70
2018-01-31T13:34:04.817Z,47.60
2018-01-31T13:36:44.214Z,47.60
2018-01-31T13:39:24.409Z,47.60
2018-01-31T13:45:28.327Z,47.30
2018-01-31T13:48:07.753Z,47.30
2018-01-31T13:50:47.288Z,46.50
2018-01-31T13:56:24.744Z,45.90
2018-01-31T13:59:03.977Z,46.10
2018-01-31T14:01:43.420Z,45.40
2018-01-31T14:04:22.928Z,45.40
2018-01-31T14:07:02.433Z,45.20
2018-01-31T14:09:41.852Z,44.40
2018-01-31T14:15:22.940Z,43.30
2018-01-31T14:18:02.390Z,44.20
2018-01-31T14:20:41.762Z,43.50
2018-01-31T14:23:21.390Z,44.30
2018-01-31T14:26:01.021Z,44.10
2018-01-31T14:28:40.440Z,44.80
2018-01-31T14:31:20.667Z,45.10
2018-01-31T14:34:00.177Z,45.10
2018-01-31T14:36:28.061Z,45.30
2018-01-31T14:38:55.176Z,45.20
2018-01-31T14:41:22.325Z,46.30
2018-01-31T14:43:49.441Z,47.20
2018-01-31T14:46:17.325Z,48.90
2018-01-31T14:48:45.240Z,48.40
2018-01-31T14:51:12.357Z,48.40
2018-01-31T14:53:40.236Z,48.30
2018-01-31T14:56:08.165Z,48.90
2018-01-31T14:58:35.285Z,48.80
2018-01-31T15:01:03.165Z,48.40
2018-01-31T15:03:31.080Z,48.40
2018-01-31T15:05:58.198Z,48.40
2018-01-31T15:08:26.080Z,47.10
2018-01-31T15:10:54.004Z,47.20
2018-01-31T15:13:21.125Z,47.20
2018-01-31T15:15:49.005Z,47.90
2018-01-31T15:18:16.924Z,47.90
2018-01-31T15:20:44.032Z,47.90
2018-01-31T15:23:11.135Z,48.60
2018-01-31T15:25:38.735Z,49.80
2018-01-31T15:28:05.848Z,50.30
2018-01-31T15:30:33.745Z,51.90
2018-01-31T15:33:00.898Z,51.80
2018-01-31T15:35:28.017Z,51.00
2018-01-31T15:37:55.137Z,51.70
2018-01-31T15:40:22.290Z,53.80
2018-01-31T15:42:49.412Z,55.50
2018-01-31T15:45:16.530Z,56.20
2018-01-31T15:47:43.683Z,57.20
2018-01-31T15:50:10.876Z,58.30
2018-01-31T15:52:38.039Z,58.60
2018-01-31T15:55:05.202Z,59.20
2018-01-31T15:57:32.454Z,60.00
2018-01-31T16:00:01.634Z,60.30
2018-01-31T16:02:29.564Z,59.60
2018-01-31T16:04:56.751Z,59.60
2018-01-31T16:07:23.874Z,60.10
2018-01-31T16:09:51.383Z,59.10
2018-01-31T16:12:19.309Z,59.40
2018-01-31T16:14:47.237Z,59.30
2018-01-31T16:17:14.880Z,59.30
2018-01-31T16:19:54.262Z,59.00
2018-01-31T16:22:21.903Z,59.50
2018-01-31T16:24:49.509Z,59.30
2018-01-31T16:27:23.022Z,58.10
2018-01-31T16:30:03.257Z,58.20
2018-01-31T16:32:42.714Z,57.40
2018-01-31T16:35:10.316Z,57.40
2018-01-31T16:37:37.916Z,57.10
2018-01-31T16:40:05.569Z,58.30
2018-01-31T16:42:33.186Z,56.60
2018-01-31T16:45:01.564Z,55.20
2018-01-31T16:47:30.024Z,54.80
2018-01-31T16:49:57.641Z,54.70
2018-01-31T16:52:26.017Z,50.60
2018-01-31T16:54:53.673Z,50.50
2018-01-31T16:57:21.281Z,50.40
2018-01-31T16:59:49.665Z,49.00
2018-01-31T17:02:18.078Z,49.10
2018-01-31T17:04:46.450Z,47.40
2018-01-31T17:07:14.074Z,47.40
2018-01-31T17:09:41.744Z,45.10
2018-01-31T17:12:09.356Z,45.70
2018-01-31T17:14:36.972Z,46.10
2018-01-31T17:17:05.527Z,47.90
2018-01-31T17:19:33.134Z,51.10
2018-01-31T17:22:01.517Z,55.90
2018-01-31T17:24:29.161Z,55.90
2018-01-31T17:26:56.769Z,56.10
2018-01-31T17:29:25.151Z,55.80
2018-01-31T17:31:52.832Z,55.80
2018-01-31T17:34:21.200Z,54.00
2018-01-31T17:36:48.805Z,53.90
2018-01-31T17:39:17.221Z,51.70
2018-01-31T17:41:44.881Z,51.70
2018-01-31T17:44:13.925Z,50.90
2018-01-31T17:46:42.085Z,50.90
2018-01-31T17:49:10.094Z,49.70
2018-01-31T17:51:38.391Z,49.30
2018-01-31T17:54:08.060Z,48.20
2018-01-31T17:56:36.553Z,47.10
2018-01-31T17:59:04.494Z,47.10
2018-01-31T18:01:33.513Z,46.30
2018-01-31T18:04:02.049Z,47.00
2018-01-31T18:06:29.661Z,46.30
2018-01-31T18:08:57.327Z,46.30
2018-01-31T18:11:25.748Z,46.50
2018-01-31T18:13:53.397Z,46.00
2018-01-31T18:16:21.488Z,46.20
2018-01-31T18:18:49.089Z,46.80
2018-01-31T18:21:17.036Z,45.80
2018-01-31T18:23:44.681Z,45.70
2018-01-31T18:26:12.312Z,45.40
2018-01-31T18:28:40.005Z,44.70
2018-01-31T18:31:08.410Z,44.20
2018-01-31T18:33:37.198Z,43.70
2018-01-31T18:36:05.580Z,44.30
2018-01-31T18:38:33.993Z,43.80
2018-01-31T18:41:02.700Z,43.50
2018-01-31T18:43:34.853Z,43.50
2018-01-31T18:46:02.599Z,43.30
2018-01-31T18:48:30.677Z,43.70
2018-01-31T18:50:58.745Z,43.20
2018-01-31T18:53:27.010Z,43.00
2018-01-31T18:55:55.408Z,43.60
2018-01-31T18:58:23.069Z,43.60
2018-01-31T19:00:51.511Z,42.40
2018-01-31T19:03:19.114Z,42.30
2018-01-31T19:05:46.765Z,42.80
2018-01-31T19:08:14.374Z,42.80
2018-01-31T19:10:41.987Z,42.40
2018-01-31T19:13:09.695Z,42.30
2018-01-31T19:15:37.304Z,42.90
2018-01-31T19:18:05.666Z,44.90
2018-01-31T19:20:33.308Z,44.10
2018-01-31T19:23:00.914Z,44.90
2018-01-31T19:25:28.561Z,45.00
2018-01-31T19:27:56.204Z,45.60
2018-01-31T19:30:24.574Z,47.40
2018-01-31T19:32:52.186Z,47.40
2018-01-31T19:35:19.842Z,49.00
2018-01-31T19:37:47.445Z,49.80
2018-01-31T19:40:15.049Z,51.30
2018-01-31T19:42:42.704Z,52.80
2018-01-31T19:45:10.554Z,53.70
2018-01-31T19:47:38.187Z,56.30
2018-01-31T19:50:05.825Z,58.10
2018-01-31T19:52:33.420Z,60.60
2018-01-31T19:55:01.025Z,63.10
2018-01-31T19:57:29.436Z,70.70
2018-01-31T19:59:57.857Z,76.80
2018-01-31T20:02:25.469Z,76.70
2018-01-31T20:04:53.121Z,81.80
2018-01-31T20:07:20.723Z,88.20
2018-01-31T20:09:48.412Z,91.70
2018-01-31T20:12:16.861Z,99.00
2018-01-31T20:14:44.553Z,98.90
2018-01-31T20:17:12.909Z,99.80
2018-01-31T20:19:40.634Z,99.90
2018-01-31T20:22:08.253Z,99.90
2018-01-31T20:24:36.281Z,99.90
2018-01-31T20:27:08.853Z,99.90
2018-01-31T20:29:36.510Z,99.90
2018-01-31T20:32:04.241Z,99.90
2018-01-31T20:34:32.785Z,99.90
2018-01-31T20:37:00.569Z,99.90
2018-01-31T20:39:28.235Z,99.90
2018-01-31T20:41:55.904Z,99.90
2018-01-31T20:44:23.516Z,99.90
2018-01-31T20:46:51.492Z,99.90
2018-01-31T20:49:19.625Z,99.90
2018-01-31T20:51:47.263Z,99.90
2018-01-31T20:54:14.876Z,99.90
2018-01-31T20:56:42.517Z,99.90
2018-01-31T20:59:11.327Z,99.90
2018-01-31T21:01:39.018Z,99.90
2018-01-31T21:04:06.673Z,99.90
2018-01-31T21:06:34.294Z,99.90
2018-01-31T21:09:02.864Z,99.90
2018-01-31T21:11:31.973Z,99.90
2018-01-31T21:14:03.129Z,99.90
2018-01-31T21:16:33.226Z,99.90
2018-01-31T21:19:00.916Z,99.90
2018-01-31T21:21:29.553Z,99.90
2018-01-31T21:23:58.243Z,99.90
2018-01-31T21:26:25.859Z,99.90
2018-01-31T21:28:54.644Z,99.90
2018-01-31T21:31:22.293Z,99.90
2018-01-31T21:33:52.332Z,99.90
2018-01-31T21:36:20.549Z,99.90
2018-01-31T21:38:48.538Z,99.90
2018-01-31T21:41:17.273Z,99.90
2018-01-31T21:43:44.954Z,99.90
2018-01-31T21:46:13.367Z,99.90
2018-01-31T21:48:41.050Z,99.90
2018-01-31T21:51:08.658Z,99.90
2018-01-31T21:53:36.401Z,99.90
2018-01-31T21:56:04.013Z,99.90
2018-01-31T21:58:31.625Z,99.90
2018-01-31T22:00:59.553Z,99.90
2018-01-31T22:03:27.160Z,99.90
2018-01-31T22:05:54.790Z,99.90
2018-01-31T22:08:22.432Z,99.90
2018-01-31T22:10:50.045Z,99.90
2018-01-31T22:13:17.648Z,99.90
2018-01-31T22:15:45.484Z,99.90
2018-01-31T22:18:13.123Z,99.90
2018-01-31T22:20:41.489Z,99.90
2018-01-31T22:23:09.137Z,99.90
2018-01-31T22:25:36.737Z,99.90
2018-01-31T22:28:04.382Z,99.90
2018-01-31T22:30:32.031Z,99.90
2018-01-31T22:32:59.636Z,99.40
2018-01-31T22:35:27.249Z,99.90
2018-01-31T22:37:55.649Z,99.00
2018-01-31T22:40:24.029Z,98.70
2018-01-31T22:42:51.633Z,98.70
2018-01-31T22:45:19.273Z,98.30
2018-01-31T22:47:46.876Z,99.00
2018-01-31T22:50:14.472Z,99.60
2018-01-31T22:52:42.113Z,98.80
2018-01-31T22:55:10.489Z,98.60
2018-01-31T22:57:38.225Z,98.60
2018-01-31T23:00:05.856Z,97.20
2018-01-31T23:02:34.221Z,96.40
2018-01-31T23:05:01.829Z,96.40
2018-01-31T23:07:29.469Z,95.40
2018-01-31T23:09:57.077Z,93.50
2018-01-31T23:12:24.682Z,91.60
2018-01-31T23:14:54.305Z,90.10
2018-01-31T23:17:27.631Z,89.90
2018-01-31T23:19:55.266Z,91.10
2018-01-31T23:22:22.879Z,88.40
2018-01-31T23:24:50.480Z,89.40
2018-01-31T23:27:18.881Z,87.00
2018-01-31T23:29:46.481Z,87.00
2018-01-31T23:32:14.073Z,87.30
2018-01-31T23:34:41.708Z,87.80
2018-01-31T23:37:09.314Z,89.10
2018-01-31T23:39:36.921Z,87.20
2018-01-31T23:42:04.565Z,88.40
2018-01-31T23:44:32.177Z,86.10
2018-01-31T23:46:59.784Z,86.10
2018-01-31T23:49:27.422Z,86.60
2018-01-31T23:51:55.034Z,86.40
2018-01-31T23:54:22.642Z,86.10
2018-01-31T23:56:50.285Z,87.60
2018-01-31T23:59:17.906Z,85.80
